Delta, Ohio
Current Conditions -  °F | °C
As of 7:15 AM on Sunday 25 Jan 2015 (Local Time) from KUSE Reporting Station
Haze Haze  
Wind Chill: 27°   Ceiling: 1500
Heat Index: 34°   Visibility: 4mi
Dew Point: 34°   Wind: 8mph
Humidity: 100%   Direction: 50°NE
Pressure: 29.74"   Gusts: NA
Location:  41.57°N, 84.01°W
Report Text: KUSE 251215Z AUTO 05007KT 4SM BR SCT010 OVC015 01/01 A2974 RMK AO2
Loading
Personal Weather Stations






























Interactive Weather Map New forecast layout! Learn more

10-Day Weather Forecast

Advertisements
Track Severe Weather on mobile